createdAt,value
2022-08-28T00:00:25.083Z,2.22
2022-08-28T00:00:57.097Z,2.60
2022-08-28T00:01:29.164Z,2.30
2022-08-28T00:02:01.194Z,2.30
2022-08-28T00:02:33.802Z,2.45
2022-08-28T00:03:06.526Z,2.50
2022-08-28T00:03:38.995Z,2.38
2022-08-28T00:04:11.067Z,2.63
2022-08-28T00:04:43.066Z,2.10
2022-08-28T00:05:15.966Z,2.15
2022-08-28T00:05:47.995Z,2.63
2022-08-28T00:06:20.278Z,2.40
2022-08-28T00:06:52.255Z,2.40
2022-08-28T00:07:24.266Z,3.10
2022-08-28T00:07:57.164Z,2.50
2022-08-28T00:08:30.537Z,2.30
2022-08-28T00:09:02.685Z,2.15
2022-08-28T00:09:35.029Z,2.30
2022-08-28T00:10:08.100Z,2.50
2022-08-28T00:10:40.563Z,2.80
2022-08-28T00:11:12.971Z,2.60
2022-08-28T00:11:44.983Z,2.72
2022-08-28T00:12:17.643Z,2.60
2022-08-28T00:12:50.285Z,2.53
2022-08-28T00:13:23.274Z,2.50
2022-08-28T00:13:56.693Z,2.40
2022-08-28T00:14:28.910Z,2.58
2022-08-28T00:15:00.904Z,2.88
2022-08-28T00:15:34.652Z,2.47
2022-08-28T00:16:06.831Z,2.33
2022-08-28T00:16:38.904Z,2.47
2022-08-28T00:17:11.869Z,3.20
2022-08-28T00:17:44.143Z,2.58
2022-08-28T00:18:16.845Z,2.95
2022-08-28T00:18:48.849Z,2.60
2022-08-28T00:19:21.027Z,2.92
2022-08-28T00:19:53.072Z,2.42
2022-08-28T00:20:25.776Z,2.58
2022-08-28T00:20:58.414Z,2.40
2022-08-28T00:21:33.156Z,2.22
2022-08-28T00:22:05.380Z,2.78
2022-08-28T00:22:38.365Z,2.50
2022-08-28T00:23:10.370Z,2.33
2022-08-28T00:23:43.599Z,2.40
2022-08-28T00:24:15.879Z,2.60
2022-08-28T00:24:48.186Z,2.70
2022-08-28T00:25:24.102Z,2.72
2022-08-28T00:25:56.102Z,2.70
2022-08-28T00:26:47.188Z,2.60
2022-08-28T00:27:37.676Z,3.53
2022-08-28T00:28:11.056Z,2.60
2022-08-28T00:28:55.508Z,2.88
2022-08-28T00:29:28.015Z,2.67
2022-08-28T00:30:00.040Z,2.50
2022-08-28T00:30:33.597Z,3.22
2022-08-28T00:31:05.685Z,2.47
2022-08-28T00:31:39.521Z,2.72
2022-08-28T00:32:11.605Z,2.42
2022-08-28T00:32:43.623Z,3.08
2022-08-28T00:33:18.249Z,3.47
2022-08-28T00:33:50.728Z,3.13
2022-08-28T00:34:32.048Z,2.90
2022-08-28T00:35:05.354Z,2.85
2022-08-28T00:35:38.442Z,2.60
2022-08-28T00:36:11.321Z,2.95
2022-08-28T00:36:43.388Z,2.95
2022-08-28T00:37:15.556Z,2.95
2022-08-28T00:37:48.236Z,2.70
2022-08-28T00:38:21.417Z,2.58
2022-08-28T00:38:53.414Z,3.15
2022-08-28T00:39:26.209Z,3.00
2022-08-28T00:39:58.201Z,2.92
2022-08-28T00:40:32.426Z,2.70
2022-08-28T00:41:05.145Z,2.75
2022-08-28T00:41:38.841Z,2.80
2022-08-28T00:42:13.496Z,3.20
2022-08-28T00:42:46.935Z,3.10
2022-08-28T00:43:24.755Z,3.58
2022-08-28T00:44:11.780Z,2.88
2022-08-28T00:44:45.298Z,2.75
2022-08-28T00:45:18.583Z,3.58
2022-08-28T00:45:50.689Z,3.13
2022-08-28T00:46:23.700Z,2.90
2022-08-28T00:46:56.927Z,2.92
2022-08-28T00:47:28.976Z,3.22
2022-08-28T00:48:01.327Z,3.45
2022-08-28T00:48:33.501Z,4.00
2022-08-28T00:49:06.630Z,3.22
2022-08-28T00:49:44.650Z,3.60
2022-08-28T00:50:18.760Z,2.88
2022-08-28T00:51:09.265Z,2.95
2022-08-28T00:51:59.954Z,3.25
2022-08-28T00:52:32.179Z,3.10
2022-08-28T00:53:04.168Z,3.08
2022-08-28T00:53:36.388Z,2.65
2022-08-28T00:54:09.381Z,3.22
2022-08-28T00:54:59.042Z,3.30
2022-08-28T00:55:32.141Z,2.92
2022-08-28T00:56:09.521Z,2.88
2022-08-28T00:56:46.618Z,3.25
2022-08-28T00:57:20.182Z,3.55
2022-08-28T00:57:54.980Z,3.30
2022-08-28T00:58:27.018Z,3.05
2022-08-28T00:59:02.910Z,3.50
2022-08-28T00:59:34.967Z,3.20
2022-08-28T01:00:08.752Z,3.78
2022-08-28T01:00:41.160Z,3.30
2022-08-28T01:01:14.333Z,4.00
2022-08-28T01:01:47.500Z,3.40
2022-08-28T01:02:19.638Z,3.30
2022-08-28T01:02:51.964Z,3.35
2022-08-28T01:03:26.492Z,3.30
2022-08-28T01:03:58.696Z,3.00
2022-08-28T01:04:32.351Z,3.35
2022-08-28T01:05:09.603Z,3.72
2022-08-28T01:05:44.192Z,3.35
2022-08-28T01:06:20.156Z,3.25
2022-08-28T01:06:54.161Z,3.33
2022-08-28T01:07:26.696Z,3.42
2022-08-28T01:07:59.210Z,3.40
2022-08-28T01:08:31.330Z,3.85
2022-08-28T01:09:03.844Z,3.47
2022-08-28T01:09:37.690Z,3.85
2022-08-28T01:10:11.204Z,2.88
2022-08-28T01:10:46.620Z,4.03
2022-08-28T01:11:19.517Z,3.55
2022-08-28T01:11:53.078Z,2.97
2022-08-28T01:12:27.134Z,3.40
2022-08-28T01:12:59.617Z,3.40
2022-08-28T01:13:32.455Z,3.42
2022-08-28T01:14:05.404Z,3.60
2022-08-28T01:14:39.098Z,3.92
2022-08-28T01:15:14.379Z,3.65
2022-08-28T01:15:47.826Z,3.95
2022-08-28T01:16:23.048Z,3.28
2022-08-28T01:17:04.582Z,3.75
2022-08-28T01:17:36.628Z,3.67
2022-08-28T01:18:15.609Z,3.20
2022-08-28T01:18:48.428Z,4.05
2022-08-28T01:19:23.339Z,3.58
2022-08-28T01:19:58.362Z,3.38
2022-08-28T01:20:31.539Z,3.20
2022-08-28T01:21:11.722Z,4.00
2022-08-28T01:22:04.310Z,3.90
2022-08-28T01:22:38.510Z,3.72
2022-08-28T01:23:19.508Z,3.90
2022-08-28T01:23:53.352Z,3.58
2022-08-28T01:24:25.512Z,3.35
2022-08-28T01:24:59.238Z,3.20
2022-08-28T01:25:33.821Z,4.22
2022-08-28T01:26:10.718Z,3.85
2022-08-28T01:26:43.896Z,3.55
2022-08-28T01:27:16.167Z,3.53
2022-08-28T01:27:48.264Z,3.60
2022-08-28T01:28:20.395Z,3.50
2022-08-28T01:28:52.466Z,3.50
2022-08-28T01:29:25.091Z,3.58
2022-08-28T01:29:57.644Z,3.60
2022-08-28T01:30:31.874Z,3.83
2022-08-28T01:31:04.061Z,4.10
2022-08-28T01:31:37.794Z,3.22
2022-08-28T01:32:10.021Z,3.03
2022-08-28T01:32:47.306Z,3.78
2022-08-28T01:33:19.523Z,3.42
2022-08-28T01:34:01.051Z,3.60
2022-08-28T01:34:33.701Z,3.38
2022-08-28T01:35:07.084Z,3.28
2022-08-28T01:35:41.016Z,3.83
2022-08-28T01:36:13.625Z,3.80
2022-08-28T01:36:47.695Z,3.38
2022-08-28T01:37:19.760Z,4.05
2022-08-28T01:37:52.660Z,4.18
2022-08-28T01:38:26.940Z,3.60
2022-08-28T01:39:08.251Z,3.20
2022-08-28T01:39:40.240Z,3.65
2022-08-28T01:40:13.836Z,3.60
2022-08-28T01:40:47.365Z,3.83
2022-08-28T01:41:20.778Z,3.70
2022-08-28T01:41:54.618Z,3.50
2022-08-28T01:42:26.654Z,4.07
2022-08-28T01:43:06.093Z,3.90
2022-08-28T01:43:39.113Z,3.70
2022-08-28T01:44:11.327Z,4.25
2022-08-28T01:44:43.302Z,4.10
2022-08-28T01:45:16.301Z,3.95
2022-08-28T01:45:52.733Z,3.92
2022-08-28T01:46:24.856Z,3.85
2022-08-28T01:46:58.025Z,3.72
2022-08-28T01:47:30.020Z,3.90
2022-08-28T01:48:02.044Z,3.80
2022-08-28T01:48:36.100Z,4.35
2022-08-28T01:49:10.853Z,3.90
2022-08-28T01:49:42.950Z,3.53
2022-08-28T01:50:17.407Z,3.35
2022-08-28T01:50:50.759Z,3.63
2022-08-28T01:51:24.624Z,3.83
2022-08-28T01:51:57.863Z,3.97
2022-08-28T01:52:31.363Z,4.18
2022-08-28T01:53:05.026Z,3.78
2022-08-28T01:53:37.415Z,4.00
2022-08-28T01:54:10.180Z,4.00
2022-08-28T01:54:43.875Z,4.05
2022-08-28T01:55:15.900Z,3.97
2022-08-28T01:55:53.934Z,3.83
2022-08-28T01:56:25.945Z,4.18
2022-08-28T01:56:57.928Z,3.75
2022-08-28T01:57:29.920Z,3.80
2022-08-28T01:58:03.223Z,3.70
2022-08-28T01:58:38.213Z,3.75
2022-08-28T01:59:10.946Z,4.60
2022-08-28T01:59:42.990Z,3.80
2022-08-28T02:00:16.895Z,3.80
2022-08-28T02:00:49.119Z,3.85
2022-08-28T02:01:21.796Z,4.07
2022-08-28T02:01:55.220Z,3.67
2022-08-28T02:02:27.509Z,3.88
2022-08-28T02:02:59.807Z,3.33
2022-08-28T02:03:33.426Z,3.70
2022-08-28T02:04:06.239Z,4.45
2022-08-28T02:04:38.374Z,4.25
2022-08-28T02:05:11.073Z,3.88
2022-08-28T02:05:43.633Z,4.22
2022-08-28T02:06:16.338Z,3.58
2022-08-28T02:06:48.344Z,4.18
2022-08-28T02:07:20.331Z,3.90
2022-08-28T02:07:52.677Z,3.88
2022-08-28T02:08:24.655Z,3.95
2022-08-28T02:08:56.646Z,3.30
2022-08-28T02:09:28.986Z,4.22
2022-08-28T02:10:01.096Z,4.18
2022-08-28T02:10:34.991Z,3.85
2022-08-28T02:11:08.867Z,3.80
2022-08-28T02:11:46.331Z,4.03
2022-08-28T02:12:18.828Z,4.25
2022-08-28T02:12:52.026Z,3.80
2022-08-28T02:13:25.610Z,4.00
2022-08-28T02:13:57.833Z,3.75
2022-08-28T02:14:31.025Z,3.95
2022-08-28T02:15:03.947Z,3.50
2022-08-28T02:15:36.537Z,3.88
2022-08-28T02:16:09.726Z,3.42
2022-08-28T02:16:41.812Z,4.20
2022-08-28T02:17:13.786Z,4.40
2022-08-28T02:17:45.765Z,3.95
2022-08-28T02:18:18.682Z,4.00
2022-08-28T02:18:50.902Z,4.10
2022-08-28T02:19:22.924Z,4.20
2022-08-28T02:19:54.922Z,4.10
2022-08-28T02:20:28.623Z,3.70
2022-08-28T02:21:01.281Z,4.00
2022-08-28T02:21:33.327Z,3.53
2022-08-28T02:22:08.245Z,3.70
2022-08-28T02:22:40.523Z,3.53
2022-08-28T02:23:12.555Z,4.20
2022-08-28T02:23:44.703Z,3.58
2022-08-28T02:24:17.131Z,4.25
2022-08-28T02:24:49.158Z,3.55
2022-08-28T02:25:22.321Z,4.10
2022-08-28T02:25:54.284Z,3.60
2022-08-28T02:26:28.370Z,4.43
2022-08-28T02:27:00.636Z,3.90
2022-08-28T02:27:32.782Z,4.05
2022-08-28T02:28:05.127Z,4.18
2022-08-28T02:28:37.576Z,3.78
2022-08-28T02:29:09.611Z,4.35
2022-08-28T02:29:41.583Z,3.10
2022-08-28T02:30:14.469Z,4.07
2022-08-28T02:30:46.516Z,4.13
2022-08-28T02:31:18.608Z,4.00
2022-08-28T02:31:50.624Z,3.60
2022-08-28T02:32:23.300Z,4.00
2022-08-28T02:32:55.320Z,4.22
2022-08-28T02:33:27.409Z,3.75
2022-08-28T02:33:59.413Z,4.05
2022-08-28T02:34:32.704Z,4.35
2022-08-28T02:35:06.233Z,5.05
2022-08-28T02:35:44.194Z,4.28
2022-08-28T02:36:16.437Z,4.25
2022-08-28T02:36:49.140Z,4.45
2022-08-28T02:37:21.716Z,4.05
2022-08-28T02:37:54.572Z,3.63
2022-08-28T02:38:27.616Z,3.65
2022-08-28T02:39:03.299Z,4.50
2022-08-28T02:39:35.329Z,4.55
2022-08-28T02:40:07.834Z,4.00
2022-08-28T02:40:41.264Z,4.18
2022-08-28T02:41:13.362Z,3.70
2022-08-28T02:41:45.370Z,4.00
2022-08-28T02:42:17.426Z,3.95
2022-08-28T02:42:52.136Z,3.90
2022-08-28T02:43:24.150Z,3.90
2022-08-28T02:43:56.260Z,4.10
2022-08-28T02:44:28.249Z,3.85
2022-08-28T02:45:00.973Z,4.18
2022-08-28T02:45:33.254Z,4.13
2022-08-28T02:46:05.571Z,4.00
2022-08-28T02:46:37.625Z,4.05
2022-08-28T02:47:09.663Z,3.58
2022-08-28T02:47:42.544Z,4.07
2022-08-28T02:48:17.163Z,4.53
2022-08-28T02:48:50.446Z,3.80
2022-08-28T02:49:23.906Z,3.95
2022-08-28T02:49:55.904Z,4.25
2022-08-28T02:50:29.256Z,4.10
2022-08-28T02:51:02.830Z,3.92
2022-08-28T02:51:35.449Z,4.15
2022-08-28T02:52:07.506Z,3.42
2022-08-28T02:52:40.539Z,3.88
2022-08-28T02:53:13.393Z,3.63
2022-08-28T02:53:46.517Z,3.90
2022-08-28T02:54:18.652Z,4.18
2022-08-28T02:54:50.694Z,4.28
2022-08-28T02:55:24.652Z,4.18
2022-08-28T02:55:57.622Z,3.88
2022-08-28T02:56:30.292Z,3.67
2022-08-28T02:57:02.502Z,3.85
2022-08-28T02:57:35.288Z,3.75
2022-08-28T02:58:09.599Z,3.95
2022-08-28T02:58:41.755Z,3.92
2022-08-28T02:59:13.894Z,3.42
2022-08-28T02:59:47.765Z,4.53
2022-08-28T03:00:21.376Z,4.50
2022-08-28T03:00:54.364Z,3.88
2022-08-28T03:01:26.434Z,4.72
2022-08-28T03:01:58.526Z,3.80
2022-08-28T03:02:31.749Z,3.55
2022-08-28T03:03:03.829Z,3.63
2022-08-28T03:03:35.943Z,4.15
2022-08-28T03:04:09.927Z,4.43
2022-08-28T03:04:42.022Z,3.78
2022-08-28T03:05:15.482Z,3.78
2022-08-28T03:05:47.460Z,3.90
2022-08-28T03:06:19.476Z,3.63
2022-08-28T03:06:51.558Z,3.80
2022-08-28T03:07:23.544Z,4.00
2022-08-28T03:07:56.234Z,3.95
2022-08-28T03:08:28.560Z,3.90
2022-08-28T03:09:00.641Z,3.85
2022-08-28T03:09:32.747Z,3.67
2022-08-28T03:10:07.139Z,4.03
2022-08-28T03:10:39.122Z,4.07
2022-08-28T03:11:11.940Z,4.07
2022-08-28T03:11:44.001Z,3.97
2022-08-28T03:12:17.098Z,3.97
2022-08-28T03:12:49.361Z,3.83
2022-08-28T03:13:26.539Z,3.78
2022-08-28T03:14:03.306Z,4.43
2022-08-28T03:14:35.790Z,4.13
2022-08-28T03:15:08.806Z,4.00
2022-08-28T03:15:43.587Z,4.28
2022-08-28T03:16:16.804Z,4.43
2022-08-28T03:16:49.224Z,4.18
2022-08-28T03:17:22.176Z,3.72
2022-08-28T03:17:54.208Z,3.92
2022-08-28T03:18:27.292Z,3.80
2022-08-28T03:18:59.532Z,4.00
2022-08-28T03:19:31.490Z,4.40
2022-08-28T03:20:08.452Z,3.70
2022-08-28T03:20:41.380Z,4.20
2022-08-28T03:21:13.883Z,4.10
2022-08-28T03:21:45.929Z,4.43
2022-08-28T03:22:38.935Z,3.85
2022-08-28T03:23:26.265Z,3.78
2022-08-28T03:23:58.352Z,3.80
2022-08-28T03:24:30.356Z,3.83
2022-08-28T03:25:02.311Z,3.95
2022-08-28T03:25:34.277Z,3.72
2022-08-28T03:26:06.318Z,4.47
2022-08-28T03:26:38.319Z,3.85
2022-08-28T03:27:10.553Z,4.30
2022-08-28T03:27:42.586Z,4.00
2022-08-28T03:28:14.579Z,4.25
2022-08-28T03:28:47.923Z,3.67
2022-08-28T03:29:19.904Z,3.38
2022-08-28T03:29:51.899Z,3.88
2022-08-28T03:30:24.204Z,3.55
2022-08-28T03:30:56.870Z,4.47
2022-08-28T03:31:29.973Z,3.70
2022-08-28T03:32:02.119Z,3.92
2022-08-28T03:32:34.787Z,3.38
2022-08-28T03:33:06.825Z,3.83
2022-08-28T03:33:42.573Z,3.50
2022-08-28T03:34:14.873Z,3.33
2022-08-28T03:34:46.891Z,3.72
2022-08-28T03:35:20.416Z,3.60
2022-08-28T03:35:52.773Z,3.42
2022-08-28T03:36:26.249Z,3.47
2022-08-28T03:36:58.223Z,4.18
2022-08-28T03:37:30.270Z,3.33
2022-08-28T03:38:02.244Z,3.92
2022-08-28T03:38:34.967Z,3.90
2022-08-28T03:39:06.937Z,4.38
2022-08-28T03:39:39.105Z,4.20
2022-08-28T03:40:11.597Z,3.80
2022-08-28T03:40:45.362Z,3.80
2022-08-28T03:41:18.938Z,3.63
2022-08-28T03:41:51.501Z,3.70
2022-08-28T03:42:23.914Z,3.53
2022-08-28T03:42:56.069Z,3.35
2022-08-28T03:43:28.285Z,4.10
2022-08-28T03:44:01.220Z,3.92
2022-08-28T03:44:33.239Z,4.13
2022-08-28T03:45:07.699Z,3.85
2022-08-28T03:45:40.276Z,4.18
2022-08-28T03:46:16.738Z,3.80
2022-08-28T03:46:48.773Z,3.80
2022-08-28T03:47:21.120Z,3.35
2022-08-28T03:47:53.567Z,4.07
2022-08-28T03:48:27.414Z,3.85
2022-08-28T03:49:00.334Z,4.30
2022-08-28T03:49:33.234Z,3.40
2022-08-28T03:50:06.550Z,4.18
2022-08-28T03:50:42.131Z,3.17
2022-08-28T03:51:17.462Z,3.70
2022-08-28T03:51:49.607Z,3.90
2022-08-28T03:52:21.579Z,4.05
2022-08-28T03:52:53.899Z,3.63
2022-08-28T03:53:27.033Z,3.90
2022-08-28T03:53:59.511Z,4.35
2022-08-28T03:54:31.727Z,3.42
2022-08-28T03:55:04.397Z,3.65
2022-08-28T03:55:36.711Z,3.70
2022-08-28T03:56:10.031Z,3.55
2022-08-28T03:56:42.479Z,3.83
2022-08-28T03:57:21.362Z,3.60
2022-08-28T03:57:53.355Z,3.80
2022-08-28T03:58:26.369Z,4.30
2022-08-28T03:59:00.016Z,3.72
2022-08-28T03:59:33.643Z,4.13
2022-08-28T04:00:07.175Z,4.00
2022-08-28T04:00:44.784Z,4.13
2022-08-28T04:01:18.157Z,3.60
2022-08-28T04:01:50.307Z,3.55
2022-08-28T04:02:22.427Z,4.15
2022-08-28T04:02:54.531Z,3.72
2022-08-28T04:03:26.674Z,4.05
2022-08-28T04:03:58.845Z,3.70
2022-08-28T04:04:30.817Z,4.07
2022-08-28T04:05:02.973Z,3.67
2022-08-28T04:05:35.339Z,3.53
2022-08-28T04:06:07.637Z,3.72
2022-08-28T04:06:39.743Z,3.70
2022-08-28T04:07:12.612Z,4.18
2022-08-28T04:07:45.173Z,3.72
2022-08-28T04:08:18.054Z,4.10
2022-08-28T04:08:51.086Z,3.35
2022-08-28T04:09:23.145Z,4.40
2022-08-28T04:09:55.172Z,3.80
2022-08-28T04:10:27.144Z,3.95
2022-08-28T04:11:00.806Z,3.90
2022-08-28T04:11:37.136Z,4.30
2022-08-28T04:12:09.564Z,3.78
2022-08-28T04:12:41.583Z,3.63
2022-08-28T04:13:15.273Z,3.70
2022-08-28T04:13:47.264Z,4.00
2022-08-28T04:14:19.245Z,4.20
2022-08-28T04:14:51.330Z,4.30
2022-08-28T04:15:23.354Z,3.28
2022-08-28T04:15:57.131Z,3.40
2022-08-28T04:16:30.073Z,4.13
2022-08-28T04:17:02.148Z,3.85
2022-08-28T04:17:34.365Z,4.28
2022-08-28T04:18:06.445Z,3.95
2022-08-28T04:18:39.553Z,3.70
2022-08-28T04:19:11.627Z,3.40
2022-08-28T04:19:45.063Z,3.92
2022-08-28T04:20:17.415Z,3.50
2022-08-28T04:20:58.542Z,3.50
2022-08-28T04:21:30.627Z,3.88
2022-08-28T04:22:02.689Z,3.88
2022-08-28T04:22:34.804Z,4.30
2022-08-28T04:23:09.847Z,4.30
2022-08-28T04:23:43.275Z,4.07
2022-08-28T04:24:15.369Z,4.53
2022-08-28T04:24:47.708Z,3.67
2022-08-28T04:25:19.695Z,4.15
2022-08-28T04:25:51.672Z,3.25
2022-08-28T04:26:25.298Z,3.70
2022-08-28T04:26:57.346Z,4.13
2022-08-28T04:27:29.344Z,4.07
2022-08-28T04:28:01.327Z,3.53
2022-08-28T04:28:33.912Z,4.45
2022-08-28T04:29:06.094Z,3.90
2022-08-28T04:29:38.114Z,4.22
2022-08-28T04:30:10.946Z,4.00
2022-08-28T04:30:42.946Z,3.65
2022-08-28T04:31:15.613Z,4.28
2022-08-28T04:31:47.771Z,4.20
2022-08-28T04:32:19.878Z,4.40
2022-08-28T04:32:51.970Z,4.13
2022-08-28T04:33:24.662Z,4.15
2022-08-28T04:33:58.173Z,4.05
2022-08-28T04:34:30.192Z,3.70
2022-08-28T04:35:02.984Z,3.70
2022-08-28T04:35:35.102Z,4.35
2022-08-28T04:36:08.826Z,3.88
2022-08-28T04:36:41.228Z,4.53
2022-08-28T04:37:13.275Z,4.10
2022-08-28T04:37:45.297Z,4.60
2022-08-28T04:38:17.810Z,4.32
2022-08-28T04:38:50.644Z,3.72
2022-08-28T04:39:22.707Z,4.00
2022-08-28T04:39:54.841Z,3.90
2022-08-28T04:40:26.945Z,3.42
2022-08-28T04:40:58.975Z,4.10
2022-08-28T04:41:31.042Z,3.95
2022-08-28T04:42:03.124Z,3.80
2022-08-28T04:42:35.408Z,3.88
2022-08-28T04:43:07.914Z,4.30
2022-08-28T04:43:40.158Z,4.57
2022-08-28T04:44:12.154Z,4.13
2022-08-28T04:44:44.304Z,4.28
2022-08-28T04:45:16.383Z,3.90
2022-08-28T04:45:48.642Z,4.40
2022-08-28T04:46:20.720Z,4.60
2022-08-28T04:46:53.262Z,4.05
2022-08-28T04:47:25.740Z,4.20
2022-08-28T04:47:58.144Z,4.38
2022-08-28T04:48:32.186Z,4.28
2022-08-28T04:49:04.588Z,4.35
2022-08-28T04:49:36.692Z,3.92
2022-08-28T04:50:09.435Z,4.25
2022-08-28T04:50:42.453Z,3.88
2022-08-28T04:51:17.111Z,3.95
2022-08-28T04:51:49.119Z,4.05
2022-08-28T04:52:22.786Z,4.30
2022-08-28T04:52:54.789Z,3.83
2022-08-28T04:53:26.867Z,3.65
2022-08-28T04:53:58.936Z,4.10
2022-08-28T04:54:32.519Z,4.30
2022-08-28T04:55:04.801Z,3.88
2022-08-28T04:55:54.440Z,4.18
2022-08-28T04:56:27.395Z,3.78
2022-08-28T04:56:59.553Z,4.05
2022-08-28T04:57:35.781Z,4.57
2022-08-28T04:58:08.848Z,4.20
2022-08-28T04:58:41.573Z,4.22
2022-08-28T04:59:13.638Z,4.07
2022-08-28T04:59:45.776Z,4.18
2022-08-28T05:00:17.889Z,4.25
2022-08-28T05:00:49.932Z,4.65
2022-08-28T05:01:24.371Z,3.80
2022-08-28T05:01:56.638Z,4.70
2022-08-28T05:02:29.205Z,3.70
2022-08-28T05:03:01.187Z,4.57
2022-08-28T05:03:33.333Z,3.70
2022-08-28T05:04:05.511Z,4.13
2022-08-28T05:04:37.510Z,4.60
2022-08-28T05:05:09.767Z,4.25
2022-08-28T05:05:42.402Z,4.50
2022-08-28T05:06:15.485Z,3.88
2022-08-28T05:06:47.960Z,4.47
2022-08-28T05:07:20.004Z,4.83
2022-08-28T05:07:51.984Z,4.47
2022-08-28T05:08:26.898Z,4.28
2022-08-28T05:08:59.957Z,4.03
2022-08-28T05:09:32.137Z,4.60
2022-08-28T05:10:04.571Z,4.13
2022-08-28T05:10:38.002Z,4.28
2022-08-28T05:11:11.271Z,4.53
2022-08-28T05:11:44.232Z,3.95
2022-08-28T05:12:17.430Z,4.53
2022-08-28T05:12:50.158Z,5.18
2022-08-28T05:13:23.251Z,4.82
2022-08-28T05:13:55.917Z,4.20
2022-08-28T05:14:27.993Z,4.78
2022-08-28T05:14:59.999Z,4.40
2022-08-28T05:15:32.161Z,8.27
2022-08-28T05:16:04.469Z,7.28
2022-08-28T05:16:40.482Z,7.03
2022-08-28T05:17:14.168Z,5.93
2022-08-28T05:17:46.967Z,6.18
2022-08-28T05:18:21.238Z,5.40
2022-08-28T05:18:53.274Z,5.57
2022-08-28T05:19:26.969Z,4.90
2022-08-28T05:19:58.965Z,5.17
2022-08-28T05:20:34.415Z,5.00
2022-08-28T05:21:14.312Z,5.25
2022-08-28T05:21:46.942Z,4.90
2022-08-28T05:22:18.967Z,4.32
2022-08-28T05:22:50.955Z,4.73
2022-08-28T05:23:25.685Z,4.55
2022-08-28T05:23:58.002Z,4.70
2022-08-28T05:24:30.029Z,4.97
2022-08-28T05:25:02.084Z,4.80
2022-08-28T05:25:34.962Z,5.00
2022-08-28T05:26:10.933Z,5.10
2022-08-28T05:26:43.137Z,4.10
2022-08-28T05:27:15.453Z,4.57
2022-08-28T05:27:47.661Z,4.47
2022-08-28T05:28:19.837Z,5.18
2022-08-28T05:28:54.135Z,5.20
2022-08-28T05:29:26.125Z,4.70
2022-08-28T05:30:01.689Z,5.13
2022-08-28T05:30:35.686Z,4.90
2022-08-28T05:31:21.134Z,4.88
2022-08-28T05:31:53.315Z,4.87
2022-08-28T05:32:25.385Z,5.30
2022-08-28T05:32:57.507Z,4.60
2022-08-28T05:33:29.501Z,5.10
2022-08-28T05:34:02.067Z,4.43
2022-08-28T05:34:34.072Z,4.67
2022-08-28T05:35:06.198Z,4.60
2022-08-28T05:35:39.454Z,4.33
2022-08-28T05:36:11.767Z,4.78
2022-08-28T05:36:44.386Z,4.53
2022-08-28T05:37:19.575Z,4.90
2022-08-28T05:37:55.137Z,4.33
2022-08-28T05:38:27.151Z,4.20
2022-08-28T05:38:59.935Z,4.75
2022-08-28T05:39:32.048Z,4.90
2022-08-28T05:40:04.393Z,4.70
2022-08-28T05:40:46.953Z,4.50
2022-08-28T05:41:22.829Z,4.50
2022-08-28T05:41:54.897Z,4.35
2022-08-28T05:42:28.888Z,4.73
2022-08-28T05:43:03.033Z,5.03
2022-08-28T05:43:35.249Z,4.72
2022-08-28T05:44:08.430Z,6.13
2022-08-28T05:44:40.441Z,5.18
2022-08-28T05:45:13.405Z,4.95
2022-08-28T05:45:45.476Z,4.90
2022-08-28T05:46:17.861Z,4.37
2022-08-28T05:46:49.926Z,4.95
2022-08-28T05:47:22.079Z,4.43
2022-08-28T05:47:54.125Z,4.70
2022-08-28T05:48:27.881Z,4.87
2022-08-28T05:49:05.611Z,4.95
2022-08-28T05:49:40.741Z,4.93
2022-08-28T05:50:15.781Z,4.78
2022-08-28T05:50:48.255Z,4.18
2022-08-28T05:51:22.327Z,4.80
2022-08-28T05:51:54.541Z,5.10
2022-08-28T05:52:28.695Z,5.33
2022-08-28T05:53:01.409Z,5.10
2022-08-28T05:53:39.673Z,4.95
2022-08-28T05:54:12.224Z,5.27
2022-08-28T05:54:44.271Z,4.90
2022-08-28T05:55:16.315Z,5.23
2022-08-28T05:55:51.894Z,5.03
2022-08-28T05:56:25.724Z,4.80
2022-08-28T05:56:57.760Z,4.97
2022-08-28T05:57:29.769Z,5.00
2022-08-28T05:58:21.758Z,5.10
2022-08-28T05:58:53.767Z,5.20
2022-08-28T05:59:25.849Z,4.87
2022-08-28T05:59:57.867Z,5.43
2022-08-28T06:00:29.841Z,5.10
2022-08-28T06:01:04.779Z,4.97
2022-08-28T06:01:40.482Z,5.00
2022-08-28T06:02:12.616Z,4.90
2022-08-28T06:02:44.890Z,5.00
2022-08-28T06:03:16.904Z,4.70
2022-08-28T06:03:55.079Z,4.80
2022-08-28T06:04:27.952Z,4.90
2022-08-28T06:05:00.022Z,4.93
2022-08-28T06:05:32.125Z,5.10
2022-08-28T06:06:04.850Z,5.10
2022-08-28T06:06:39.307Z,5.15
2022-08-28T06:07:19.348Z,4.11
2022-08-28T06:07:52.517Z,5.40
2022-08-28T06:08:24.579Z,5.10
2022-08-28T06:09:01.477Z,4.97
2022-08-28T06:09:33.489Z,4.10
2022-08-28T06:10:05.764Z,4.53
2022-08-28T06:10:45.891Z,4.93
2022-08-28T06:11:21.014Z,4.90
2022-08-28T06:11:58.765Z,4.63
2022-08-28T06:12:30.774Z,5.17
2022-08-28T06:13:03.654Z,5.00
2022-08-28T06:13:36.684Z,5.00
2022-08-28T06:14:10.990Z,4.70
2022-08-28T06:14:43.108Z,4.75
2022-08-28T06:15:16.964Z,4.80
2022-08-28T06:15:49.014Z,4.70
2022-08-28T06:16:21.065Z,4.53
2022-08-28T06:16:54.516Z,4.73
2022-08-28T06:17:26.558Z,4.83
2022-08-28T06:17:58.582Z,4.93
2022-08-28T06:18:31.460Z,4.47
2022-08-28T06:19:05.676Z,5.13
2022-08-28T06:19:41.302Z,4.93
2022-08-28T06:20:13.794Z,4.97
2022-08-28T06:20:46.602Z,4.90
2022-08-28T06:21:18.608Z,4.93
2022-08-28T06:21:53.828Z,4.60
2022-08-28T06:22:25.823Z,5.63
2022-08-28T06:22:57.895Z,5.00
2022-08-28T06:23:30.083Z,4.90
2022-08-28T06:24:02.174Z,4.70
2022-08-28T06:24:34.330Z,4.47
2022-08-28T06:25:08.116Z,5.00
2022-08-28T06:25:41.200Z,5.07
2022-08-28T06:26:15.954Z,4.70
2022-08-28T06:26:47.958Z,5.20
2022-08-28T06:27:20.008Z,5.23
2022-08-28T06:27:52.043Z,5.80
2022-08-28T06:28:25.671Z,5.23
2022-08-28T06:29:01.559Z,5.33
2022-08-28T06:29:33.585Z,4.70
2022-08-28T06:30:06.359Z,5.53
2022-08-28T06:30:40.125Z,5.10
2022-08-28T06:31:23.999Z,4.67
2022-08-28T06:31:59.210Z,5.50
2022-08-28T06:32:31.329Z,5.10
2022-08-28T06:33:05.108Z,5.10
2022-08-28T06:33:37.742Z,5.03
2022-08-28T06:34:10.218Z,4.77
2022-08-28T06:34:42.883Z,5.60
2022-08-28T06:35:14.894Z,4.97
2022-08-28T06:35:54.428Z,4.90
2022-08-28T06:36:30.132Z,4.70
2022-08-28T06:37:02.162Z,5.03
2022-08-28T06:37:34.231Z,5.40
2022-08-28T06:38:06.368Z,4.57
2022-08-28T06:38:38.804Z,4.97
2022-08-28T06:39:12.412Z,5.30
2022-08-28T06:39:44.382Z,5.20
2022-08-28T06:40:16.451Z,5.70
2022-08-28T06:40:50.280Z,5.30
2022-08-28T06:41:22.302Z,4.93
2022-08-28T06:41:54.374Z,5.00
2022-08-28T06:42:28.266Z,5.30
2022-08-28T06:43:00.354Z,4.40
2022-08-28T06:43:32.324Z,4.90
2022-08-28T06:44:04.334Z,5.23
2022-08-28T06:44:38.504Z,4.60
2022-08-28T06:45:12.238Z,4.90
2022-08-28T06:45:45.505Z,4.70
2022-08-28T06:46:17.663Z,5.30
2022-08-28T06:46:50.786Z,5.10
2022-08-28T06:47:22.928Z,4.73
2022-08-28T06:47:55.332Z,4.70
2022-08-28T06:48:28.306Z,4.80
2022-08-28T06:49:01.716Z,4.83
2022-08-28T06:49:33.869Z,5.17
2022-08-28T06:50:06.160Z,5.00
2022-08-28T06:50:42.216Z,5.67
2022-08-28T06:51:14.846Z,4.70
2022-08-28T06:51:46.942Z,4.57
2022-08-28T06:52:19.050Z,4.93
2022-08-28T06:52:51.019Z,4.40
2022-08-28T06:53:24.856Z,4.63
2022-08-28T06:53:57.950Z,4.30
2022-08-28T06:54:31.132Z,4.93
2022-08-28T06:55:03.271Z,4.97
2022-08-28T06:55:35.515Z,4.93
2022-08-28T06:56:09.240Z,3.80
2022-08-28T06:56:41.372Z,3.90
2022-08-28T06:57:13.352Z,3.53
2022-08-28T06:57:45.321Z,3.30
2022-08-28T06:58:17.312Z,2.93
2022-08-28T06:58:50.277Z,3.77
2022-08-28T06:59:23.730Z,3.93
2022-08-28T06:59:58.826Z,4.33
2022-08-28T07:00:30.998Z,4.50
2022-08-28T07:01:07.766Z,4.63
2022-08-28T07:01:39.981Z,4.17
2022-08-28T07:02:12.477Z,4.30
2022-08-28T07:02:45.068Z,4.20
2022-08-28T07:03:18.188Z,5.13
2022-08-28T07:03:52.251Z,4.80
2022-08-28T07:04:24.770Z,4.50
2022-08-28T07:04:56.933Z,4.40
2022-08-28T07:05:29.741Z,4.40
2022-08-28T07:06:06.172Z,3.73
2022-08-28T07:06:40.547Z,4.27
2022-08-28T07:07:31.818Z,4.43
2022-08-28T07:08:05.921Z,4.80
2022-08-28T07:08:39.464Z,4.10
2022-08-28T07:09:12.410Z,4.63
2022-08-28T07:09:44.495Z,4.10
2022-08-28T07:10:16.544Z,4.03
2022-08-28T07:10:49.101Z,4.00
2022-08-28T07:11:26.033Z,3.53
2022-08-28T07:11:58.499Z,3.70
2022-08-28T07:12:30.593Z,3.57
2022-08-28T07:13:05.446Z,3.10
2022-08-28T07:13:37.456Z,3.87
2022-08-28T07:14:09.980Z,3.57
2022-08-28T07:14:42.153Z,2.55
2022-08-28T07:15:14.190Z,3.40
2022-08-28T07:15:46.468Z,3.53
2022-08-28T07:16:19.571Z,3.97
2022-08-28T07:16:51.960Z,3.47
2022-08-28T07:17:24.043Z,3.70
2022-08-28T07:17:56.533Z,3.50
2022-08-28T07:18:29.179Z,3.30
2022-08-28T07:19:04.730Z,4.03
2022-08-28T07:19:37.403Z,3.43
2022-08-28T07:20:11.410Z,3.30
2022-08-28T07:20:44.987Z,3.27
2022-08-28T07:21:17.768Z,2.90
2022-08-28T07:21:50.107Z,3.60
2022-08-28T07:22:23.152Z,3.45
2022-08-28T07:22:59.624Z,3.58
2022-08-28T07:23:33.942Z,3.07
2022-08-28T07:24:07.224Z,2.80
2022-08-28T07:24:40.133Z,3.58